Time;durP1;ratioP1;P1;durP2;ratioP2;P2;SDS_P1;SDS_P2;PMS_P1;PMS_P2;Temp;Humidity;BMP_temperature;BMP_pressure;BME280_temperature;BME280_humidity;BME280_pressure;Samples;Min_cycle;Max_cycle;Signal;HPM_P1;HPM_P2
2024/02/29 00:02:11;;;;;;;32.78;3.53;;;;;;;;;;5033768;28;20045;-78
2024/02/29 00:04:38;;;;;;;36.63;4.22;;;;;;;;;;5034303;28;20045;-76
2024/02/29 00:07:05;;;;;;;40.72;4.32;;;;;;;;;;5033830;28;20393;-75
2024/02/29 00:09:32;;;;;;;42.97;4.50;;;;;;;;;;5032923;28;20053;-78
2024/02/29 00:11:59;;;;;;;39.67;4.00;;;;;;;;;;5033936;28;20049;-77
2024/02/29 00:14:26;;;;;;;32.88;3.45;;;;;;;;;;5033613;28;20449;-78
2024/02/29 00:16:53;;;;;;;40.53;5.15;;;;;;;;;;5031163;28;20445;-78
2024/02/29 00:19:20;;;;;;;26.33;3.50;;;;;;;;;;5032116;28;20046;-78
2024/02/29 00:21:47;;;;;;;31.25;3.47;;;;;;;;;;5033700;28;20056;-76
2024/02/29 00:24:14;;;;;;;28.38;3.40;;;;;;;;;;5033345;28;20041;-78
2024/02/29 00:26:41;;;;;;;27.58;3.80;;;;;;;;;;5033649;28;20076;-78
2024/02/29 00:29:08;;;;;;;38.92;4.85;;;;;;;;;;5033182;28;20492;-78
2024/02/29 00:31:35;;;;;;;30.08;3.53;;;;;;;;;;5033508;28;20069;-78
2024/02/29 00:34:02;;;;;;;41.28;4.57;;;;;;;;;;5033349;28;20034;-78
2024/02/29 00:36:28;;;;;;;40.97;4.65;;;;;;;;;;5033203;28;20099;-78
2024/02/29 00:38:55;;;;;;;36.83;4.38;;;;;;;;;;5033618;28;20092;-78
2024/02/29 00:41:37;;;;;;;50.15;4.47;;;;;;;;;;5014318;28;20041;-78
2024/02/29 00:44:04;;;;;;;36.05;4.57;;;;;;;;;;5033058;28;20546;-77
2024/02/29 00:46:30;;;;;;;46.85;4.70;;;;;;;;;;5033485;28;20107;-78
2024/02/29 00:48:57;;;;;;;35.65;4.07;;;;;;;;;;5033459;28;20048;-78
2024/02/29 00:51:24;;;;;;;32.20;3.67;;;;;;;;;;5033087;28;20065;-78
2024/02/29 00:53:51;;;;;;;48.40;4.78;;;;;;;;;;5032569;28;20045;-78
2024/02/29 00:56:18;;;;;;;51.00;5.20;;;;;;;;;;5032825;28;20498;-78
2024/02/29 00:58:44;;;;;;;36.75;4.63;;;;;;;;;;5032068;28;20049;-78
2024/02/29 01:01:12;;;;;;;35.85;3.97;;;;;;;;;;5032759;28;20045;-77
2024/02/29 01:03:39;;;;;;;36.05;4.88;;;;;;;;;;5033070;28;20468;-78
2024/02/29 01:06:07;;;;;;;38.90;4.03;;;;;;;;;;5032837;28;20061;-78
2024/02/29 01:08:33;;;;;;;39.83;4.53;;;;;;;;;;5033118;28;20053;-78
2024/02/29 01:11:03;;;;;;;34.97;4.25;;;;;;;;;;5033039;28;20295;-78
2024/02/29 01:13:30;;;;;;;37.28;4.40;;;;;;;;;;5032648;28;20062;-79
2024/02/29 01:15:57;;;;;;;40.28;4.55;;;;;;;;;;5033155;28;20535;-78
2024/02/29 01:18:24;;;;;;;40.92;4.35;;;;;;;;;;5031152;28;20045;-78
2024/02/29 01:20:50;;;;;;;44.45;5.28;;;;;;;;;;5031595;28;20048;-78
2024/02/29 01:23:17;;;;;;;40.35;5.22;;;;;;;;;;5032557;28;20049;-78
2024/02/29 01:25:44;;;;;;;41.65;5.47;;;;;;;;;;5031638;28;20051;-79
2024/02/29 01:28:11;;;;;;;42.97;5.43;;;;;;;;;;5031374;28;20041;-80
2024/02/29 01:30:38;;;;;;;51.83;5.53;;;;;;;;;;5032054;28;20100;-78
2024/02/29 01:33:05;;;;;;;41.85;5.18;;;;;;;;;;5032099;28;20129;-77
2024/02/29 01:35:32;;;;;;;46.53;4.55;;;;;;;;;;5032102;28;20061;-78
2024/02/29 01:37:58;;;;;;;60.00;6.78;;;;;;;;;;5032239;28;20044;-78
2024/02/29 01:40:25;;;;;;;53.00;5.68;;;;;;;;;;5031722;28;20056;-79
2024/02/29 01:42:52;;;;;;;44.38;5.05;;;;;;;;;;5030946;28;20041;-78
2024/02/29 01:45:19;;;;;;;42.35;6.05;;;;;;;;;;5031836;28;20072;-78
2024/02/29 01:47:45;;;;;;;54.25;5.75;;;;;;;;;;5032060;28;20037;-79
2024/02/29 01:50:15;;;;;;;44.17;5.35;;;;;;;;;;5031641;28;20107;-79
2024/02/29 01:52:44;;;;;;;44.22;5.60;;;;;;;;;;5032131;28;20056;-77
2024/02/29 01:55:12;;;;;;;55.72;6.15;;;;;;;;;;5031509;28;20048;-78
2024/02/29 01:57:39;;;;;;;47.25;5.13;;;;;;;;;;5029781;28;20057;-78
2024/02/29 02:00:08;;;;;;;37.75;5.32;;;;;;;;;;5031647;28;20477;-78
2024/02/29 02:02:37;;;;;;;51.67;5.45;;;;;;;;;;5031876;28;20034;-78
2024/02/29 02:05:06;;;;;;;53.25;4.68;;;;;;;;;;5030175;28;20060;-78
2024/02/29 02:07:36;;;;;;;48.75;4.90;;;;;;;;;;5031961;28;20483;-78
2024/02/29 02:10:06;;;;;;;52.10;5.55;;;;;;;;;;5032651;28;20060;-78
2024/02/29 02:12:34;;;;;;;44.58;6.07;;;;;;;;;;5041137;28;20472;-78
2024/02/29 02:15:02;;;;;;;50.45;6.00;;;;;;;;;;5042760;28;20045;-78
2024/02/29 02:17:31;;;;;;;61.45;6.65;;;;;;;;;;5041385;28;20124;-78
2024/02/29 02:19:59;;;;;;;38.75;5.10;;;;;;;;;;5039655;28;20068;-78
2024/02/29 02:22:27;;;;;;;38.00;5.60;;;;;;;;;;5038130;28;20392;-79
2024/02/29 02:24:53;;;;;;;57.42;5.88;;;;;;;;;;5039804;28;20304;-78
2024/02/29 02:27:20;;;;;;;55.80;5.85;;;;;;;;;;5031553;28;20045;-79
2024/02/29 02:29:47;;;;;;;57.22;6.70;;;;;;;;;;5032441;28;20061;-78
2024/02/29 02:32:14;;;;;;;65.22;6.82;;;;;;;;;;5031630;28;20045;-78
2024/02/29 02:34:40;;;;;;;48.65;5.35;;;;;;;;;;5031963;28;20427;-78
2024/02/29 02:37:07;;;;;;;55.55;5.60;;;;;;;;;;5031831;28;20045;-78
2024/02/29 02:39:34;;;;;;;46.15;6.72;;;;;;;;;;5034334;28;20492;-79
2024/02/29 02:42:01;;;;;;;45.58;5.38;;;;;;;;;;5034652;28;20554;-78
2024/02/29 02:44:28;;;;;;;56.40;6.30;;;;;;;;;;5035396;28;20424;-78
2024/02/29 02:46:54;;;;;;;66.90;6.60;;;;;;;;;;5035689;28;20292;-78
2024/02/29 02:49:21;;;;;;;45.10;6.15;;;;;;;;;;5035356;28;20057;-79
2024/02/29 02:51:48;;;;;;;54.72;5.05;;;;;;;;;;5035576;28;20507;-78
2024/02/29 02:54:15;;;;;;;56.13;5.07;;;;;;;;;;5034030;28;20049;-79
2024/02/29 02:56:41;;;;;;;56.03;6.07;;;;;;;;;;5035572;28;20049;-79
2024/02/29 02:59:08;;;;;;;46.50;6.07;;;;;;;;;;5035197;28;20045;-78
2024/02/29 03:01:35;;;;;;;48.88;6.22;;;;;;;;;;5035517;28;20117;-78
2024/02/29 03:04:04;;;;;;;51.65;6.28;;;;;;;;;;5035599;28;20033;-78
2024/02/29 03:06:30;;;;;;;;;;;;;;;;;;5035612;28;20079;-78
2024/02/29 03:08:57;;;;;;;48.60;5.22;;;;;;;;;;5035391;28;19924;-78
2024/02/29 03:11:24;;;;;;;57.92;5.93;;;;;;;;;;5034971;28;20045;-78
2024/02/29 03:13:51;;;;;;;47.53;5.43;;;;;;;;;;5035181;28;20053;-78
2024/02/29 03:16:24;;;;;;;51.85;7.28;;;;;;;;;;5034879;28;20107;-78
2024/02/29 03:18:51;;;;;;;49.83;5.28;;;;;;;;;;5035231;28;20045;-78
2024/02/29 03:21:18;;;;;;;52.58;5.28;;;;;;;;;;5034641;28;20037;-78
2024/02/29 03:23:45;;;;;;;49.47;4.85;;;;;;;;;;5035057;28;20501;-79
2024/02/29 03:26:11;;;;;;;41.00;5.38;;;;;;;;;;5034477;28;20045;-79
2024/02/29 03:28:39;;;;;;;43.28;5.75;;;;;;;;;;5035180;28;20053;-78
2024/02/29 03:31:15;;;;;;;51.97;5.55;;;;;;;;;;5033000;28;20079;-77
2024/02/29 03:33:42;;;;;;;51.83;4.75;;;;;;;;;;5037068;28;20033;-78
2024/02/29 03:36:09;;;;;;;54.00;5.40;;;;;;;;;;5037300;28;20041;-78
2024/02/29 03:38:36;;;;;;;44.20;5.05;;;;;;;;;;5037213;28;20124;-78
2024/02/29 03:41:05;;;;;;;45.90;5.72;;;;;;;;;;5036416;28;20042;-79
2024/02/29 03:43:32;;;;;;;50.28;5.88;;;;;;;;;;5037450;28;20056;-78
2024/02/29 03:45:59;;;;;;;48.72;6.05;;;;;;;;;;5036918;28;20042;-77
2024/02/29 03:48:25;;;;;;;50.92;5.78;;;;;;;;;;5034441;28;20052;-78
2024/02/29 03:50:52;;;;;;;55.40;5.53;;;;;;;;;;5034598;28;20053;-78
2024/02/29 03:53:20;;;;;;;44.83;5.18;;;;;;;;;;5034233;28;20060;-78
2024/02/29 03:55:48;;;;;;;52.10;4.47;;;;;;;;;;5033205;28;20507;-78
2024/02/29 03:58:15;;;;;;;42.03;6.97;;;;;;;;;;5034051;28;20394;-77
2024/02/29 04:00:42;;;;;;;46.67;6.22;;;;;;;;;;5034430;28;20065;-78
2024/02/29 04:03:09;;;;;;;44.67;4.90;;;;;;;;;;5032697;28;20050;-78
2024/02/29 04:05:36;;;;;;;50.78;6.38;;;;;;;;;;5033113;28;20041;-78
2024/02/29 04:08:11;;;;;;;46.80;5.70;;;;;;;;;;5034289;28;20064;-78
2024/02/29 04:10:38;;;;;;;54.80;6.32;;;;;;;;;;5034014;28;20045;-78
2024/02/29 04:13:05;;;;;;;39.92;5.68;;;;;;;;;;5033668;28;20072;-78
2024/02/29 04:15:32;;;;;;;40.25;5.45;;;;;;;;;;5034018;28;20382;-78
2024/02/29 04:18:00;;;;;;;56.17;5.95;;;;;;;;;;5032974;28;20049;-77
2024/02/29 04:20:26;;;;;;;44.93;5.70;;;;;;;;;;5033621;28;20049;-78
2024/02/29 04:22:54;;;;;;;45.47;5.18;;;;;;;;;;5034054;28;20050;-77
2024/02/29 04:25:22;;;;;;;46.92;5.15;;;;;;;;;;5033423;28;20041;-79
2024/02/29 04:27:50;;;;;;;;;;;;;;;;;;5034271;28;20056;-77
2024/02/29 04:30:17;;;;;;;54.42;6.03;;;;;;;;;;5033291;28;19920;-78
2024/02/29 04:32:44;;;;;;;45.17;4.85;;;;;;;;;;5033600;28;20056;-78
2024/02/29 04:35:11;;;;;;;49.15;4.95;;;;;;;;;;5031919;28;20049;-78
2024/02/29 04:37:38;;;;;;;48.53;5.90;;;;;;;;;;5033681;28;20045;-78
2024/02/29 04:40:07;;;;;;;48.50;6.15;;;;;;;;;;5033235;28;20373;-77
2024/02/29 04:42:38;;;;;;;46.10;4.75;;;;;;;;;;5033673;28;20052;-79
2024/02/29 04:45:07;;;;;;;45.80;5.15;;;;;;;;;;5033143;28;20111;-78
2024/02/29 04:47:34;;;;;;;37.20;5.03;;;;;;;;;;5033407;28;20481;-79
2024/02/29 04:50:01;;;;;;;42.10;4.90;;;;;;;;;;5033539;28;20056;-79
2024/02/29 04:52:28;;;;;;;46.38;5.35;;;;;;;;;;5031794;28;20045;-79
2024/02/29 04:54:55;;;;;;;42.22;4.63;;;;;;;;;;5033519;28;20068;-79
2024/02/29 04:57:21;;;;;;;44.15;5.03;;;;;;;;;;5031737;28;20083;-78
2024/02/29 04:59:48;;;;;;;41.17;4.57;;;;;;;;;;5033294;28;20053;-79
2024/02/29 05:02:16;;;;;;;42.03;5.43;;;;;;;;;;5032326;28;20384;-79
2024/02/29 05:04:43;;;;;;;45.17;5.63;;;;;;;;;;5032014;28;20042;-79
2024/02/29 05:07:10;;;;;;;39.28;5.10;;;;;;;;;;5032757;28;20053;-79
2024/02/29 05:09:38;;;;;;;41.78;5.25;;;;;;;;;;5039739;23;20121;-79
2024/02/29 05:12:05;;;;;;;42.92;4.72;;;;;;;;;;5011713;28;20084;-79
2024/02/29 05:14:32;;;;;;;38.13;4.47;;;;;;;;;;5012109;28;20069;-78
2024/02/29 05:16:59;;;;;;;36.08;5.53;;;;;;;;;;5012142;28;20056;-79
2024/02/29 05:19:26;;;;;;;27.80;4.38;;;;;;;;;;5012774;28;20137;-79
2024/02/29 05:21:55;;;;;;;27.90;4.07;;;;;;;;;;5012127;28;20068;-78
2024/02/29 05:24:22;;;;;;;;;;;;;;;;;;5011927;28;20077;-78
2024/02/29 05:26:49;;;;;;;30.52;3.80;;;;;;;;;;5011967;28;19928;-79
2024/02/29 05:29:16;;;;;;;14.82;3.08;;;;;;;;;;5011398;28;20045;-78
2024/02/29 05:31:50;;;;;;;11.90;2.38;;;;;;;;;;5011985;28;20092;-79
2024/02/29 05:34:16;;;;;;;14.05;2.28;;;;;;;;;;5012570;28;20388;-77
2024/02/29 05:36:43;;;;;;;10.68;1.67;;;;;;;;;;5013087;28;20045;-78
2024/02/29 05:39:12;;;;;;;11.38;1.30;;;;;;;;;;5012528;28;20046;-78
2024/02/29 05:41:39;;;;;;;5.47;1.08;;;;;;;;;;5011962;28;20472;-78
2024/02/29 05:44:06;;;;;;;4.47;1.00;;;;;;;;;;5012751;28;20361;-78
2024/02/29 05:46:34;;;;;;;4.50;1.27;;;;;;;;;;5011662;28;20037;-78
2024/02/29 05:49:01;;;;;;;5.63;0.90;;;;;;;;;;5010841;28;20101;-78
2024/02/29 05:51:27;;;;;;;2.88;0.57;;;;;;;;;;5011268;28;20053;-77
2024/02/29 05:53:54;;;;;;;2.75;0.57;;;;;;;;;;5011885;28;20050;-78
2024/02/29 05:56:21;;;;;;;4.50;0.65;;;;;;;;;;5012468;28;20468;-78
2024/02/29 05:58:48;;;;;;;3.33;0.70;;;;;;;;;;5012969;28;20038;-78
2024/02/29 06:01:14;;;;;;;2.80;0.75;;;;;;;;;;5011075;28;20037;-78
2024/02/29 06:03:41;;;;;;;1.88;0.73;;;;;;;;;;5011145;28;20096;-82
2024/02/29 06:06:10;;;;;;;4.68;0.88;;;;;;;;;;5010634;28;20045;-80
2024/02/29 06:08:38;;;;;;;2.08;0.80;;;;;;;;;;5012564;28;20046;-79
2024/02/29 06:11:05;;;;;;;6.05;0.90;;;;;;;;;;5011108;28;20433;-78
2024/02/29 06:13:32;;;;;;;9.18;1.30;;;;;;;;;;4995605;28;20053;-79
2024/02/29 06:16:02;;;;;;;4.70;1.13;;;;;;;;;;5015475;28;20061;-79
2024/02/29 06:18:28;;;;;;;7.22;1.40;;;;;;;;;;5016094;28;20045;-79
2024/02/29 06:20:55;;;;;;;4.60;1.20;;;;;;;;;;5016421;28;20499;-79
2024/02/29 06:23:22;;;;;;;7.38;1.00;;;;;;;;;;5014794;28;20038;-79
2024/02/29 06:25:50;;;;;;;8.40;1.20;;;;;;;;;;5003059;28;20122;-79
2024/02/29 06:28:17;;;;;;;5.13;1.20;;;;;;;;;;4996623;28;20050;-79
2024/02/29 06:30:49;;;;;;;7.22;1.33;;;;;;;;;;5016405;28;20069;-78
2024/02/29 06:33:16;;;;;;;13.57;1.60;;;;;;;;;;5016009;28;20368;-78
2024/02/29 06:35:43;;;;;;;7.53;1.27;;;;;;;;;;5016126;28;20138;-78
2024/02/29 06:38:09;;;;;;;3.85;1.38;;;;;;;;;;5014418;28;20050;-78
2024/02/29 06:40:37;;;;;;;6.63;1.08;;;;;;;;;;5022672;28;20376;-79
2024/02/29 06:43:04;;;;;;;5.25;1.00;;;;;;;;;;5014385;28;20387;-78
2024/02/29 06:45:31;;;;;;;8.15;1.30;;;;;;;;;;5015912;28;20069;-78
2024/02/29 06:47:58;;;;;;;8.02;1.08;;;;;;;;;;5014335;28;20389;-78
2024/02/29 06:50:24;;;;;;;5.75;1.20;;;;;;;;;;5015403;28;20052;-81
2024/02/29 06:52:51;;;;;;;4.63;1.00;;;;;;;;;;5014977;28;20048;-78
2024/02/29 06:55:20;;;;;;;;;;;;;;;;;;5017168;28;20124;-78
2024/02/29 06:57:47;;;;;;;2.03;0.60;;;;;;;;;;5012773;28;20073;-79
2024/02/29 07:00:14;;;;;;;4.25;0.75;;;;;;;;;;4996206;28;20044;-80
2024/02/29 07:02:41;;;;;;;4.32;0.60;;;;;;;;;;5012002;28;20042;-79
2024/02/29 07:05:08;;;;;;;2.95;0.90;;;;;;;;;;5013988;28;20042;-79
2024/02/29 07:07:36;;;;;;;4.70;0.70;;;;;;;;;;5011704;28;20049;-79
2024/02/29 07:10:11;;;;;;;3.58;1.40;;;;;;;;;;5013066;28;20476;-79
2024/02/29 07:12:40;;;;;;;5.60;1.10;;;;;;;;;;5012922;28;20045;-78
2024/02/29 07:15:08;;;;;;;3.80;1.08;;;;;;;;;;5012109;28;20052;-80
2024/02/29 07:17:34;;;;;;;8.02;1.13;;;;;;;;;;4993357;28;20125;-80
2024/02/29 07:20:03;;;;;;;8.52;1.00;;;;;;;;;;5011932;28;20046;-79
2024/02/29 07:22:30;;;;;;;5.45;1.83;;;;;;;;;;5010647;28;20136;-79
2024/02/29 07:24:57;;;;;;;7.10;1.92;;;;;;;;;;5011698;28;20050;-79
2024/02/29 07:27:24;;;;;;;8.45;1.85;;;;;;;;;;5008898;28;20038;-80
2024/02/29 07:29:51;;;;;;;8.35;1.20;;;;;;;;;;5011281;28;20046;-80
2024/02/29 07:32:18;;;;;;;9.00;1.80;;;;;;;;;;5010907;28;20069;-80
2024/02/29 07:34:44;;;;;;;6.32;1.90;;;;;;;;;;5014313;28;20065;-79
2024/02/29 07:37:11;;;;;;;9.82;1.30;;;;;;;;;;5013559;28;20545;-78
2024/02/29 07:39:38;;;;;;;7.15;1.48;;;;;;;;;;5010714;28;20051;-79
2024/02/29 07:42:05;;;;;;;7.25;1.52;;;;;;;;;;4993547;28;20070;-78
2024/02/29 07:44:32;;;;;;;11.63;2.13;;;;;;;;;;5012473;28;20070;-78
2024/02/29 07:46:59;;;;;;;9.18;2.78;;;;;;;;;;5012484;28;20056;-78
2024/02/29 07:49:26;;;;;;;10.60;1.60;;;;;;;;;;5011748;28;20110;-80
2024/02/29 07:51:54;;;;;;;13.57;1.95;;;;;;;;;;5008726;28;20046;-82
2024/02/29 07:54:21;;;;;;;9.98;2.75;;;;;;;;;;4977047;28;20065;-79
2024/02/29 07:56:48;;;;;;;10.75;2.20;;;;;;;;;;5013494;28;20476;-79
2024/02/29 07:59:15;;;;;;;12.38;2.28;;;;;;;;;;4995722;28;20061;-78
2024/02/29 08:01:42;;;;;;;9.35;2.00;;;;;;;;;;5018744;28;20046;-78
2024/02/29 08:04:09;;;;;;;9.43;1.95;;;;;;;;;;5014241;28;20070;-80
2024/02/29 08:06:36;;;;;;;8.25;1.40;;;;;;;;;;5011560;28;20108;-79
2024/02/29 08:09:05;;;;;;;13.70;1.70;;;;;;;;;;4996453;28;20065;-80
2024/02/29 08:11:35;;;;;;;8.48;1.70;;;;;;;;;;5010374;28;20439;-80
2024/02/29 08:14:02;;;;;;;6.05;1.50;;;;;;;;;;5010790;28;20445;-79
2024/02/29 08:16:29;;;;;;;15.27;2.85;;;;;;;;;;5009998;28;20125;-80
2024/02/29 08:18:56;;;;;;;13.27;2.83;;;;;;;;;;5012361;28;20077;-79
2024/02/29 08:21:24;;;;;;;22.55;3.45;;;;;;;;;;5010705;28;20057;-80
2024/02/29 08:23:51;;;;;;;24.77;3.55;;;;;;;;;;5012445;28;20667;-79
2024/02/29 08:26:18;;;;;;;17.35;3.10;;;;;;;;;;5011982;28;20128;-80
2024/02/29 08:28:45;;;;;;;27.45;3.95;;;;;;;;;;5014240;28;20096;-80
2024/02/29 08:31:12;;;;;;;28.92;3.72;;;;;;;;;;5012423;28;20074;-78
2024/02/29 08:33:38;;;;;;;29.48;4.20;;;;;;;;;;4995940;28;20068;-79
2024/02/29 08:36:05;;;;;;;38.38;4.72;;;;;;;;;;5028178;28;20038;-80
2024/02/29 08:38:34;;;;;;;51.15;5.22;;;;;;;;;;5012499;28;20060;-80
2024/02/29 08:41:02;;;;;;;48.40;5.72;;;;;;;;;;5012522;28;20141;-79
2024/02/29 08:43:28;;;;;;;34.95;4.38;;;;;;;;;;4995955;28;20041;-80
2024/02/29 08:45:55;;;;;;;44.90;4.97;;;;;;;;;;5012617;28;20125;-80
2024/02/29 08:48:23;;;;;;;36.42;4.72;;;;;;;;;;5013553;28;20392;-79
2024/02/29 08:50:49;;;;;;;44.65;4.57;;;;;;;;;;5014037;28;20065;-80
2024/02/29 08:53:16;;;;;;;46.80;5.32;;;;;;;;;;5018382;28;20053;-79
2024/02/29 08:55:43;;;;;;;40.17;4.63;;;;;;;;;;5003266;28;20034;-78
2024/02/29 08:58:10;;;;;;;38.35;4.47;;;;;;;;;;5019613;28;20108;-79
2024/02/29 09:00:37;;;;;;;41.90;4.60;;;;;;;;;;5019449;28;20050;-80
2024/02/29 09:03:04;;;;;;;30.80;3.75;;;;;;;;;;5003368;28;20038;-79
2024/02/29 09:05:31;;;;;;;32.35;4.13;;;;;;;;;;4996822;28;20054;-80
2024/02/29 09:07:57;;;;;;;31.30;3.75;;;;;;;;;;5011999;28;20045;-80
2024/02/29 09:10:25;;;;;;;24.83;3.72;;;;;;;;;;4995537;28;20044;-80
2024/02/29 09:12:54;;;;;;;27.80;3.30;;;;;;;;;;5011846;28;20053;-80
2024/02/29 09:15:21;;;;;;;23.85;3.42;;;;;;;;;;5011569;28;20284;-79
2024/02/29 09:17:47;;;;;;;31.30;3.75;;;;;;;;;;5011951;28;20033;-81
2024/02/29 09:20:14;;;;;;;28.75;3.35;;;;;;;;;;5013223;28;20046;-80
2024/02/29 09:22:41;;;;;;;13.82;1.90;;;;;;;;;;4995383;28;20050;-80
2024/02/29 09:25:09;;;;;;;7.28;1.15;;;;;;;;;;4988649;28;20039;-79
2024/02/29 09:27:35;;;;;;;4.88;0.60;;;;;;;;;;4992509;28;20096;-79
2024/02/29 09:30:03;;;;;;;4.38;1.05;;;;;;;;;;4992470;28;20050;-80
2024/02/29 09:32:34;;;;;;;9.93;0.90;;;;;;;;;;5008510;28;20057;-80
2024/02/29 09:35:03;;;;;;;2.50;0.40;;;;;;;;;;5012925;28;20253;-80
2024/02/29 09:37:30;;;;;;;5.20;0.60;;;;;;;;;;5011578;28;20054;-81
2024/02/29 09:39:57;;;;;;;2.92;0.85;;;;;;;;;;5012097;28;20042;-81
2024/02/29 09:42:27;;;;;;;2.35;0.47;;;;;;;;;;5011566;28;20157;-79
2024/02/29 09:44:54;;;;;;;5.78;0.47;;;;;;;;;;4995580;28;20049;-79
2024/02/29 09:47:22;;;;;;;6.95;0.95;;;;;;;;;;5011592;28;20596;-79
2024/02/29 09:49:50;;;;;;;2.22;0.70;;;;;;;;;;5016062;28;20060;-79
2024/02/29 09:52:29;;;;;;;4.95;0.93;;;;;;;;;;5016474;28;20122;-79
2024/02/29 09:55:01;;;;;;;4.93;0.60;;;;;;;;;;5015650;28;20498;-78
2024/02/29 09:57:28;;;;;;;2.92;0.60;;;;;;;;;;5015049;28;20046;-79
2024/02/29 09:59:57;;;;;;;3.40;0.50;;;;;;;;;;5015392;28;20049;-78
2024/02/29 10:02:24;;;;;;;2.92;0.98;;;;;;;;;;5015831;28;20045;-79
2024/02/29 10:04:51;;;;;;;6.97;1.13;;;;;;;;;;5016111;28;20052;-79
2024/02/29 10:07:18;;;;;;;5.28;0.77;;;;;;;;;;4997795;28;20049;-79
2024/02/29 10:09:44;;;;;;;9.20;1.20;;;;;;;;;;4998296;28;20126;-78
2024/02/29 10:12:18;;;;;;;7.38;1.38;;;;;;;;;;4997821;28;20069;-79
2024/02/29 10:14:45;;;;;;;12.15;1.67;;;;;;;;;;5014682;28;20440;-79
2024/02/29 10:17:12;;;;;;;9.80;1.35;;;;;;;;;;5014153;28;20044;-79
2024/02/29 10:19:39;;;;;;;7.80;1.20;;;;;;;;;;5014315;28;20379;-79
2024/02/29 10:22:06;;;;;;;4.50;0.80;;;;;;;;;;5015416;28;20045;-79
2024/02/29 10:24:33;;;;;;;5.95;1.17;;;;;;;;;;5012198;28;20050;-78
2024/02/29 10:27:02;;;;;;;8.50;0.82;;;;;;;;;;5014484;28;20052;-78
2024/02/29 10:29:29;;;;;;;9.30;1.27;;;;;;;;;;5014241;28;20519;-78
2024/02/29 10:31:57;;;;;;;7.75;1.45;;;;;;;;;;5014330;28;20065;-78
2024/02/29 10:34:24;;;;;;;11.27;1.77;;;;;;;;;;5015121;28;20037;-78
2024/02/29 10:36:51;;;;;;;6.70;1.02;;;;;;;;;;5015370;28;20038;-78
2024/02/29 10:39:18;;;;;;;8.90;0.80;;;;;;;;;;4997182;28;20487;-78
2024/02/29 10:41:49;;;;;;;4.13;1.00;;;;;;;;;;5015470;28;20064;-78
2024/02/29 10:44:21;;;;;;;4.32;0.50;;;;;;;;;;5011530;28;20467;-78
2024/02/29 10:46:53;;;;;;;3.75;0.75;;;;;;;;;;4997837;28;20057;-78
2024/02/29 10:49:20;;;;;;;5.25;0.70;;;;;;;;;;5013842;28;20046;-78
2024/02/29 10:52:02;;;;;;;3.28;0.60;;;;;;;;;;5015393;28;20057;-78
2024/02/29 10:54:41;;;;;;;6.35;0.82;;;;;;;;;;5014970;28;20104;-78
2024/02/29 10:57:18;;;;;;;9.75;1.30;;;;;;;;;;5014693;28;20049;-79
2024/02/29 10:59:51;;;;;;;3.33;0.98;;;;;;;;;;4996610;28;20053;-78
2024/02/29 11:02:19;;;;;;;5.20;1.38;;;;;;;;;;5013896;28;20487;-78
2024/02/29 11:04:46;;;;;;;5.68;0.98;;;;;;;;;;5013835;28;20057;-78
2024/02/29 11:07:13;;;;;;;5.93;1.10;;;;;;;;;;5013214;28;20048;-78
2024/02/29 11:09:40;;;;;;;5.22;1.00;;;;;;;;;;4997220;28;20076;-78
2024/02/29 11:12:10;;;;;;;8.40;1.10;;;;;;;;;;5012475;28;20121;-78
2024/02/29 11:14:37;;;;;;;5.68;1.17;;;;;;;;;;4996431;28;20046;-78
2024/02/29 11:17:05;;;;;;;4.18;0.98;;;;;;;;;;5012686;28;20145;-77
2024/02/29 11:19:32;;;;;;;6.63;1.00;;;;;;;;;;5012882;28;20483;-78
2024/02/29 11:22:16;;;;;;;6.13;1.25;;;;;;;;;;5014083;28;20826;-78
2024/02/29 11:24:43;;;;;;;7.45;1.23;;;;;;;;;;5014436;28;20396;-78
2024/02/29 11:27:12;;;;;;;5.78;1.00;;;;;;;;;;5012580;28;20042;-78
2024/02/29 11:29:42;;;;;;;5.28;1.20;;;;;;;;;;4995673;28;20077;-78
2024/02/29 11:32:09;;;;;;;10.35;1.38;;;;;;;;;;5011589;28;20052;-79
2024/02/29 11:34:36;;;;;;;10.70;1.02;;;;;;;;;;5013899;28;20042;-79
2024/02/29 11:37:05;;;;;;;7.45;1.02;;;;;;;;;;5014088;28;20377;-78
2024/02/29 11:39:31;;;;;;;;;;;;;;;;;;5013883;28;20042;-79
2024/02/29 11:42:03;;;;;;;6.50;1.20;;;;;;;;;;5012969;28;19956;-79
2024/02/29 11:44:30;;;;;;;6.60;0.90;;;;;;;;;;5014650;28;20061;-79
2024/02/29 11:46:57;;;;;;;5.97;0.82;;;;;;;;;;5012518;28;20045;-79
2024/02/29 11:49:26;;;;;;;6.28;1.05;;;;;;;;;;5013714;28;20049;-79
2024/02/29 11:51:54;;;;;;;13.93;4.85;;;;;;;;;;5014066;28;20050;-77
2024/02/29 11:54:21;;;;;;;15.35;5.10;;;;;;;;;;5013767;28;20129;-78
2024/02/29 11:56:53;;;;;;;13.65;2.42;;;;;;;;;;5013930;28;20571;-78
2024/02/29 11:59:21;;;;;;;21.67;8.98;;;;;;;;;;5012309;28;20392;-76
2024/02/29 12:01:47;;;;;;;30.92;15.63;;;;;;;;;;5012271;28;20100;-78
2024/02/29 12:04:15;;;;;;;8.90;1.80;;;;;;;;;;5012933;28;20065;-77
2024/02/29 12:06:46;;;;;;;14.07;6.45;;;;;;;;;;5012760;28;20400;-78
2024/02/29 12:09:13;;;;;;;10.10;1.20;;;;;;;;;;5013344;28;20061;-78
2024/02/29 12:11:43;;;;;;;6.43;1.73;;;;;;;;;;5011928;28;20057;-77
2024/02/29 12:14:11;;;;;;;9.23;2.05;;;;;;;;;;4992820;28;20124;-78
2024/02/29 12:16:43;;;;;;;22.00;7.87;;;;;;;;;;4979317;28;20100;-78
2024/02/29 12:19:12;;;;;;;11.93;2.22;;;;;;;;;;5009494;28;20105;-78
2024/02/29 12:21:39;;;;;;;9.43;1.27;;;;;;;;;;5011578;28;20053;-78
2024/02/29 12:24:09;;;;;;;17.20;9.02;;;;;;;;;;4994250;28;20041;-78
2024/02/29 12:26:38;;;;;;;6.43;0.90;;;;;;;;;;5009976;28;20046;-78
2024/02/29 12:29:05;;;;;;;7.38;0.95;;;;;;;;;;4992287;28;20120;-79
2024/02/29 12:31:33;;;;;;;6.45;1.00;;;;;;;;;;5010401;28;20042;-79
2024/02/29 12:34:01;;;;;;;8.95;1.85;;;;;;;;;;5010519;28;20076;-78
2024/02/29 12:36:28;;;;;;;7.25;0.85;;;;;;;;;;5009872;28;20096;-79
2024/02/29 12:38:55;;;;;;;19.38;7.10;;;;;;;;;;5008907;28;20096;-78
2024/02/29 12:41:24;;;;;;;10.32;2.35;;;;;;;;;;5011423;28;20053;-78
2024/02/29 12:43:55;;;;;;;7.13;2.47;;;;;;;;;;5012362;28;20049;-79
2024/02/29 12:46:22;;;;;;;7.43;2.85;;;;;;;;;;5011987;28;20476;-78
2024/02/29 12:48:49;;;;;;;11.52;4.22;;;;;;;;;;5010866;28;20498;-78
2024/02/29 12:51:16;;;;;;;6.50;1.27;;;;;;;;;;5010439;28;20096;-77
2024/02/29 12:53:43;;;;;;;13.73;4.30;;;;;;;;;;5012141;28;20436;-78
2024/02/29 12:56:09;;;;;;;11.50;3.95;;;;;;;;;;5011987;28;20053;-78
2024/02/29 12:58:37;;;;;;;10.18;1.95;;;;;;;;;;5013609;28;20065;-78
2024/02/29 13:01:05;;;;;;;10.45;3.30;;;;;;;;;;5011774;28;20060;-76
2024/02/29 13:03:33;;;;;;;10.15;2.60;;;;;;;;;;5012139;28;20045;-77
2024/02/29 13:06:00;;;;;;;12.10;3.60;;;;;;;;;;5012398;28;20046;-78
2024/02/29 13:08:26;;;;;;;9.43;2.20;;;;;;;;;;4995284;28;20037;-78
2024/02/29 13:10:53;;;;;;;14.65;3.03;;;;;;;;;;5012071;28;20069;-78
2024/02/29 13:13:20;;;;;;;21.83;13.40;;;;;;;;;;5011804;28;20137;-78
2024/02/29 13:15:46;;;;;;;7.40;1.17;;;;;;;;;;5012107;28;20042;-78
2024/02/29 13:18:13;;;;;;;15.50;5.95;;;;;;;;;;5012875;28;20141;-78
2024/02/29 13:20:40;;;;;;;15.65;7.38;;;;;;;;;;5012212;28;20041;-78
2024/02/29 13:23:07;;;;;;;10.60;2.13;;;;;;;;;;5012567;28;20038;-79
2024/02/29 13:25:35;;;;;;;8.98;1.30;;;;;;;;;;5002050;28;20054;-78
2024/02/29 13:28:03;;;;;;;7.07;1.75;;;;;;;;;;4992584;28;20057;-78
2024/02/29 13:30:31;;;;;;;7.10;2.30;;;;;;;;;;4992131;28;20068;-78
2024/02/29 13:32:59;;;;;;;19.55;8.93;;;;;;;;;;4992398;28;20096;-78
2024/02/29 13:35:26;;;;;;;6.68;1.05;;;;;;;;;;5020271;28;20041;-77
2024/02/29 13:37:52;;;;;;;7.43;1.00;;;;;;;;;;5011995;28;20399;-78
2024/02/29 13:40:19;;;;;;;5.80;1.00;;;;;;;;;;5021684;28;20376;-78
2024/02/29 13:42:48;;;;;;;9.75;2.42;;;;;;;;;;5013192;28;20046;-79
2024/02/29 13:45:15;;;;;;;5.90;1.05;;;;;;;;;;5011470;28;20069;-78
2024/02/29 13:47:50;;;;;;;7.95;1.33;;;;;;;;;;5013240;28;20046;-79
2024/02/29 13:50:19;;;;;;;6.68;1.05;;;;;;;;;;5012332;28;20056;-78
2024/02/29 13:52:47;;;;;;;12.30;2.70;;;;;;;;;;5013203;28;20046;-78
2024/02/29 13:55:14;;;;;;;8.85;2.28;;;;;;;;;;5012651;28;20046;-78
2024/02/29 13:57:42;;;;;;;10.30;2.30;;;;;;;;;;5012973;28;20097;-79
2024/02/29 14:00:10;;;;;;;10.80;1.35;;;;;;;;;;5012813;28;20052;-78
2024/02/29 14:02:37;;;;;;;11.97;2.13;;;;;;;;;;5011777;28;20488;-78
2024/02/29 14:05:05;;;;;;;12.60;2.72;;;;;;;;;;5011620;28;20065;-78
2024/02/29 14:07:32;;;;;;;11.67;1.87;;;;;;;;;;5012766;28;20108;-78
2024/02/29 14:09:59;;;;;;;15.90;2.10;;;;;;;;;;5011616;28;20277;-79
2024/02/29 14:12:27;;;;;;;15.15;1.85;;;;;;;;;;5011401;28;20125;-78
2024/02/29 14:14:53;;;;;;;16.67;1.90;;;;;;;;;;5012860;28;20050;-78
2024/02/29 14:17:20;;;;;;;15.98;2.90;;;;;;;;;;5012326;28;20357;-79
2024/02/29 14:19:47;;;;;;;19.92;3.20;;;;;;;;;;5012819;28;20441;-78
2024/02/29 14:22:14;;;;;;;20.50;2.72;;;;;;;;;;5012002;28;20053;-78
2024/02/29 14:24:41;;;;;;;14.25;1.90;;;;;;;;;;5008896;28;20049;-78
2024/02/29 14:27:08;;;;;;;14.88;2.35;;;;;;;;;;4992581;28;20137;-78
2024/02/29 14:29:35;;;;;;;16.10;2.78;;;;;;;;;;4991764;28;20133;-78
2024/02/29 14:32:02;;;;;;;12.63;2.70;;;;;;;;;;4991983;28;20042;-78
2024/02/29 14:34:29;;;;;;;21.92;2.95;;;;;;;;;;5001466;28;20042;-78
2024/02/29 14:36:55;;;;;;;22.02;3.15;;;;;;;;;;5015082;28;20423;-78
2024/02/29 14:39:22;;;;;;;15.75;2.97;;;;;;;;;;5014511;28;20104;-78